createdAt,value
2019-03-12T00:01:06.765Z,89.52
2019-03-12T00:03:39.774Z,89.54
2019-03-12T00:06:12.768Z,89.48
2019-03-12T00:08:45.686Z,89.40
2019-03-12T00:11:19.074Z,89.46
2019-03-12T00:13:51.977Z,89.46
2019-03-12T00:16:24.914Z,89.44
2019-03-12T00:18:58.820Z,89.51
2019-03-12T00:21:31.929Z,89.44
2019-03-12T00:24:05.047Z,89.29
2019-03-12T00:26:37.909Z,89.17
2019-03-12T00:29:10.847Z,89.20
2019-03-12T00:31:43.771Z,89.28
2019-03-12T00:34:16.692Z,89.29
2019-03-12T00:36:49.772Z,88.84
2019-03-12T00:39:22.706Z,89.15
2019-03-12T00:41:55.800Z,89.30
2019-03-12T00:44:28.081Z,89.61
2019-03-12T00:47:00.989Z,89.66
2019-03-12T00:49:33.912Z,89.63
2019-03-12T00:52:06.784Z,89.72
2019-03-12T00:54:39.776Z,89.75
2019-03-12T00:57:12.652Z,89.82
2019-03-12T00:59:45.647Z,89.93
2019-03-12T01:02:18.628Z,89.95
2019-03-12T01:04:51.573Z,89.82
2019-03-12T01:07:24.513Z,89.86
2019-03-12T01:09:57.496Z,90.23
2019-03-12T01:12:30.551Z,90.21
2019-03-12T01:15:03.452Z,90.17
2019-03-12T01:17:36.435Z,90.17
2019-03-12T01:20:11.548Z,90.20
2019-03-12T01:22:44.514Z,90.11
2019-03-12T01:25:17.411Z,90.05
2019-03-12T01:27:50.416Z,90.11
2019-03-12T01:30:42.417Z,90.21
2019-03-12T01:33:15.503Z,90.25
2019-03-12T01:35:48.528Z,90.26
2019-03-12T01:38:21.576Z,90.16
2019-03-12T01:40:54.613Z,90.12
2019-03-12T01:43:27.667Z,90.12
2019-03-12T01:46:00.668Z,90.09
2019-03-12T01:48:33.717Z,90.35
2019-03-12T01:51:06.850Z,90.40
2019-03-12T01:53:39.909Z,90.49
2019-03-12T01:56:12.976Z,90.70
2019-03-12T01:58:46.094Z,90.59
2019-03-12T02:01:19.051Z,90.69
2019-03-12T02:03:51.899Z,90.68
2019-03-12T02:06:24.950Z,90.54
2019-03-12T02:08:57.941Z,90.55
2019-03-12T02:11:30.881Z,90.55
2019-03-12T02:14:21.694Z,90.33
2019-03-12T02:16:54.613Z,90.29
2019-03-12T02:19:27.562Z,90.31
2019-03-12T02:22:00.453Z,90.46
2019-03-12T02:24:33.492Z,90.56
2019-03-12T02:27:06.576Z,90.47
2019-03-12T02:29:39.691Z,90.48
2019-03-12T02:32:12.643Z,90.55
2019-03-12T02:34:45.590Z,90.54
2019-03-12T02:37:18.450Z,90.16
2019-03-12T02:39:51.381Z,90.13
2019-03-12T02:42:24.341Z,90.36
2019-03-12T02:44:57.293Z,90.46
2019-03-12T02:47:30.233Z,90.52
2019-03-12T02:50:03.235Z,90.47
2019-03-12T02:52:36.152Z,90.59
2019-03-12T02:55:09.846Z,90.44
2019-03-12T02:57:42.769Z,90.25
2019-03-12T03:00:21.193Z,90.29
2019-03-12T03:02:54.467Z,90.39
2019-03-12T03:05:27.572Z,90.45
2019-03-12T03:08:03.607Z,90.39
2019-03-12T03:10:36.591Z,90.39
2019-03-12T03:13:09.392Z,90.40
2019-03-12T03:15:44.850Z,90.38
2019-03-12T03:18:17.808Z,90.31
2019-03-12T03:20:50.773Z,90.32
2019-03-12T03:23:23.771Z,90.45
2019-03-12T03:25:56.761Z,90.54
2019-03-12T03:28:29.653Z,90.57
2019-03-12T03:31:02.804Z,90.57
2019-03-12T03:33:35.722Z,90.56
2019-03-12T03:36:08.844Z,90.60
2019-03-12T03:38:41.722Z,90.38
2019-03-12T03:41:14.753Z,90.25
2019-03-12T03:43:47.614Z,90.29
2019-03-12T03:46:20.541Z,90.30
2019-03-12T03:48:53.450Z,90.39
2019-03-12T03:51:26.401Z,90.54
2019-03-12T03:53:59.281Z,90.69
2019-03-12T03:56:32.235Z,90.61
2019-03-12T03:59:05.250Z,90.52
2019-03-12T04:01:39.494Z,90.63
2019-03-12T04:04:12.421Z,90.43
2019-03-12T04:06:45.390Z,90.24
2019-03-12T04:09:18.344Z,90.22
2019-03-12T04:11:51.361Z,90.29
2019-03-12T04:14:24.439Z,90.29
2019-03-12T04:16:57.774Z,90.42
2019-03-12T04:19:30.651Z,90.55
2019-03-12T04:22:03.610Z,90.56
2019-03-12T04:24:36.621Z,90.73
2019-03-12T04:27:09.524Z,90.50
2019-03-12T04:29:44.279Z,90.25
2019-03-12T04:32:17.155Z,90.26
2019-03-12T04:34:50.011Z,90.22
2019-03-12T04:37:22.965Z,90.00
2019-03-12T04:39:55.979Z,89.93
2019-03-12T04:42:27.992Z,89.95
2019-03-12T04:45:00.978Z,90.19
2019-03-12T04:47:34.006Z,90.21
2019-03-12T04:50:07.604Z,90.18
2019-03-12T04:52:40.621Z,90.33
2019-03-12T04:55:13.979Z,90.23
2019-03-12T04:57:47.128Z,90.07
2019-03-12T05:00:20.240Z,90.16
2019-03-12T05:02:53.318Z,90.10
2019-03-12T05:05:26.376Z,90.16
2019-03-12T05:07:59.943Z,90.24
2019-03-12T05:10:32.888Z,89.84
2019-03-12T05:13:05.820Z,89.64
2019-03-12T05:15:38.738Z,90.01
2019-03-12T05:18:11.695Z,90.02
2019-03-12T05:20:44.615Z,89.61
2019-03-12T05:23:17.504Z,89.48
2019-03-12T05:25:50.382Z,89.65
2019-03-12T05:28:23.360Z,89.90
2019-03-12T05:30:56.263Z,90.03
2019-03-12T05:33:29.315Z,90.09
2019-03-12T05:36:02.274Z,89.98
2019-03-12T05:38:34.566Z,90.22
2019-03-12T05:41:07.565Z,90.30
2019-03-12T05:43:40.638Z,90.14
2019-03-12T05:46:13.541Z,90.06
2019-03-12T05:48:46.349Z,89.77
2019-03-12T05:51:19.277Z,89.69
2019-03-12T05:53:52.444Z,89.50
2019-03-12T05:56:24.667Z,89.70
2019-03-12T05:58:57.876Z,89.61
2019-03-12T06:01:30.991Z,89.38
2019-03-12T06:04:04.048Z,89.42
2019-03-12T06:06:37.081Z,89.28
2019-03-12T06:09:10.126Z,89.41
2019-03-12T06:11:43.175Z,89.50
2019-03-12T06:14:16.163Z,89.37
2019-03-12T06:16:49.326Z,89.06
2019-03-12T06:19:21.946Z,88.82
2019-03-12T06:21:54.941Z,88.59
2019-03-12T06:24:27.908Z,88.56
2019-03-12T06:27:00.936Z,88.35
2019-03-12T06:29:34.157Z,88.21
2019-03-12T06:32:15.267Z,87.84
2019-03-12T06:35:05.837Z,87.82
2019-03-12T06:38:03.339Z,87.52
2019-03-12T06:40:54.126Z,87.26
2019-03-12T06:43:55.147Z,87.14
2019-03-12T06:46:55.782Z,86.89
2019-03-12T06:49:37.907Z,87.15
2019-03-12T06:52:23.842Z,86.92
2019-03-12T06:55:28.015Z,86.92
2019-03-12T06:58:20.628Z,86.67
2019-03-12T07:01:04.031Z,85.90
2019-03-12T07:04:04.359Z,86.46
2019-03-12T07:06:56.170Z,86.82
2019-03-12T07:09:38.538Z,87.12
2019-03-12T07:12:17.101Z,86.92
2019-03-12T07:15:07.471Z,85.76
2019-03-12T07:18:02.274Z,85.39
2019-03-12T07:20:52.720Z,84.47
2019-03-12T07:23:34.606Z,83.43
2019-03-12T07:26:20.205Z,82.92
2019-03-12T07:28:58.768Z,82.28
2019-03-12T07:31:38.047Z,82.51
2019-03-12T07:34:36.667Z,81.45
2019-03-12T07:37:21.775Z,81.10
2019-03-12T07:40:07.467Z,78.85
2019-03-12T07:42:52.588Z,77.37
2019-03-12T07:45:44.264Z,77.56
2019-03-12T07:48:51.084Z,77.11
2019-03-12T07:51:51.595Z,76.49
2019-03-12T07:54:35.146Z,75.92
2019-03-12T07:57:29.929Z,72.80
2019-03-12T08:00:21.711Z,73.45
2019-03-12T08:03:21.170Z,72.50
2019-03-12T08:06:06.434Z,73.89
2019-03-12T08:08:56.988Z,71.69
2019-03-12T08:11:48.699Z,69.01
2019-03-12T08:14:41.101Z,66.59
2019-03-12T08:17:36.844Z,59.35
2019-03-12T08:20:15.731Z,57.97
2019-03-12T08:23:01.440Z,55.86
2019-03-12T08:25:51.595Z,51.82
2019-03-12T08:28:35.930Z,51.85
2019-03-12T08:31:30.799Z,51.10
2019-03-12T08:34:25.565Z,49.78
2019-03-12T08:37:05.282Z,47.03
2019-03-12T08:40:06.123Z,45.24
2019-03-12T08:48:49.499Z,44.10
2019-03-12T08:51:47.489Z,42.32
2019-03-12T08:54:54.121Z,41.21
2019-03-12T08:57:40.789Z,43.54
2019-03-12T09:00:29.990Z,40.52
2019-03-12T09:03:20.585Z,37.47
2019-03-12T09:06:06.273Z,38.78
2019-03-12T09:08:49.271Z,33.64
2019-03-12T09:11:59.174Z,40.19
2019-03-12T09:14:48.972Z,33.75
2019-03-12T09:17:31.873Z,35.00
2019-03-12T09:20:16.333Z,33.52
2019-03-12T09:22:55.990Z,39.04
2019-03-12T09:25:47.759Z,40.94
2019-03-12T09:28:43.769Z,40.68
2019-03-12T09:31:44.778Z,42.88
2019-03-12T09:34:30.227Z,41.30
2019-03-12T09:37:17.885Z,42.10
2019-03-12T09:40:15.784Z,43.11
2019-03-12T09:43:06.254Z,39.16
2019-03-12T09:45:55.339Z,36.87
2019-03-12T09:48:52.839Z,36.36
2019-03-12T09:51:33.906Z,35.95
2019-03-12T09:54:29.081Z,32.44
2019-03-12T09:57:23.713Z,35.01
2019-03-12T10:00:16.557Z,34.46
2019-03-12T10:03:04.949Z,39.04
2019-03-12T10:05:51.901Z,34.23
2019-03-12T10:08:52.638Z,39.36
2019-03-12T10:11:30.780Z,29.78
2019-03-12T10:14:21.202Z,33.77
2019-03-12T10:17:19.151Z,37.74
2019-03-12T10:20:15.783Z,32.75
2019-03-12T10:23:01.414Z,31.33
2019-03-12T10:25:47.031Z,28.79
2019-03-12T10:28:37.397Z,32.59
2019-03-12T10:31:27.660Z,33.44
2019-03-12T10:34:29.631Z,31.62
2019-03-12T10:37:21.588Z,29.09
2019-03-12T10:40:35.712Z,27.66
2019-03-12T10:43:29.875Z,28.31
2019-03-12T10:46:20.144Z,30.37
2019-03-12T10:48:53.328Z,30.60
2019-03-12T10:51:26.913Z,28.28
2019-03-12T10:53:59.836Z,27.85
2019-03-12T10:56:32.816Z,29.16
2019-03-12T10:59:05.831Z,31.75
2019-03-12T11:01:38.818Z,33.93
2019-03-12T11:04:11.860Z,27.16
2019-03-12T11:06:44.890Z,33.20
2019-03-12T11:09:17.836Z,30.10
2019-03-12T11:11:50.762Z,30.01
2019-03-12T11:14:23.737Z,32.04
2019-03-12T11:16:56.650Z,32.81
2019-03-12T11:19:29.641Z,31.66
2019-03-12T11:22:02.775Z,30.31
2019-03-12T11:24:35.699Z,27.45
2019-03-12T11:27:08.751Z,28.29
2019-03-12T11:29:41.730Z,28.24
2019-03-12T11:32:14.759Z,27.12
2019-03-12T11:34:47.772Z,30.66
2019-03-12T11:37:20.965Z,28.51
2019-03-12T11:39:54.076Z,32.57
2019-03-12T11:42:27.170Z,29.56
2019-03-12T11:45:01.348Z,30.25
2019-03-12T11:47:34.967Z,27.61
2019-03-12T11:50:10.822Z,29.02
2019-03-12T11:52:52.303Z,28.53
2019-03-12T11:55:18.767Z,26.16
2019-03-12T11:57:51.921Z,29.26
2019-03-12T12:00:32.489Z,25.01
2019-03-12T12:03:05.714Z,24.63
2019-03-12T12:05:38.705Z,25.35
2019-03-12T12:08:11.765Z,27.58
2019-03-12T12:10:44.677Z,25.33
2019-03-12T12:13:17.723Z,25.35
2019-03-12T12:15:50.417Z,24.03
2019-03-12T12:18:23.485Z,24.37
2019-03-12T12:20:56.499Z,33.48
2019-03-12T12:23:29.606Z,29.55
2019-03-12T12:26:02.723Z,27.67
2019-03-12T12:28:35.876Z,29.83
2019-03-12T12:31:09.009Z,25.44
2019-03-12T12:33:42.010Z,26.28
2019-03-12T12:36:15.146Z,23.36
2019-03-12T12:38:48.149Z,23.56
2019-03-12T12:41:21.201Z,26.00
2019-03-12T12:43:53.491Z,26.37
2019-03-12T12:46:26.502Z,28.55
2019-03-12T12:48:59.409Z,25.27
2019-03-12T12:51:32.463Z,25.31
2019-03-12T12:54:05.554Z,23.75
2019-03-12T12:56:38.636Z,26.16
2019-03-12T12:59:11.712Z,21.94
2019-03-12T13:01:44.923Z,26.64
2019-03-12T13:04:18.048Z,30.22
2019-03-12T13:06:51.009Z,26.21
2019-03-12T13:09:24.048Z,27.25
2019-03-12T13:11:57.059Z,32.28
2019-03-12T13:14:40.950Z,30.14
2019-03-12T13:17:04.936Z,28.83
2019-03-12T13:19:38.108Z,30.54
2019-03-12T13:22:11.251Z,28.38
2019-03-12T13:24:44.308Z,28.82
2019-03-12T13:27:17.354Z,24.22
2019-03-12T13:29:50.356Z,24.21
2019-03-12T13:32:23.437Z,26.68
2019-03-12T13:34:56.470Z,20.26
2019-03-12T13:37:29.357Z,24.65
2019-03-12T13:40:04.182Z,24.85
2019-03-12T13:42:37.166Z,24.77
2019-03-12T13:45:11.268Z,24.74
2019-03-12T13:47:44.557Z,27.72
2019-03-12T13:50:17.680Z,27.14
2019-03-12T13:52:50.786Z,27.11
2019-03-12T13:55:23.941Z,27.48
2019-03-12T13:57:56.983Z,29.73
2019-03-12T14:00:33.096Z,28.07
2019-03-12T14:03:04.971Z,28.08
2019-03-12T14:05:38.153Z,34.36
2019-03-12T14:08:11.275Z,31.79
2019-03-12T14:10:44.311Z,30.29
2019-03-12T14:13:17.361Z,31.53
2019-03-12T14:15:50.351Z,31.06
2019-03-12T14:18:23.288Z,29.75
2019-03-12T14:21:01.675Z,30.97
2019-03-12T14:23:39.043Z,30.73
2019-03-12T14:26:13.322Z,33.77
2019-03-12T14:28:46.370Z,34.86
2019-03-12T14:31:19.370Z,32.01
2019-03-12T14:33:52.315Z,34.98
2019-03-12T14:36:25.329Z,33.44
2019-03-12T14:38:58.269Z,34.61
2019-03-12T14:41:31.202Z,34.31
2019-03-12T14:44:04.284Z,37.29
2019-03-12T14:46:37.358Z,34.72
2019-03-12T14:49:10.715Z,35.28
2019-03-12T14:52:18.672Z,33.57
2019-03-12T14:54:51.793Z,30.53
2019-03-12T14:57:24.858Z,31.95
2019-03-12T14:59:57.914Z,33.58
2019-03-12T15:02:31.159Z,30.65
2019-03-12T15:05:05.172Z,30.75
2019-03-12T15:07:38.202Z,28.82
2019-03-12T15:10:12.479Z,29.03
2019-03-12T15:12:47.839Z,30.66
2019-03-12T15:15:20.845Z,28.70
2019-03-12T15:17:54.249Z,32.47
2019-03-12T15:20:27.260Z,32.18
2019-03-12T15:23:00.301Z,29.71
2019-03-12T15:25:33.729Z,29.07
2019-03-12T15:28:06.813Z,31.22
2019-03-12T15:30:39.906Z,28.64
2019-03-12T15:33:12.978Z,30.34
2019-03-12T15:35:46.259Z,27.18
2019-03-12T15:38:19.364Z,28.59
2019-03-12T15:40:52.405Z,32.73
2019-03-12T15:43:25.477Z,25.67
2019-03-12T15:45:58.467Z,29.70
2019-03-12T15:48:31.574Z,28.80
2019-03-12T15:51:04.711Z,27.88
2019-03-12T15:53:37.695Z,31.26
2019-03-12T15:56:10.758Z,31.85
2019-03-12T15:58:43.638Z,32.43
2019-03-12T16:01:16.692Z,30.40
2019-03-12T16:03:49.765Z,30.61
2019-03-12T16:06:22.699Z,33.52
2019-03-12T16:08:55.705Z,29.18
2019-03-12T16:11:31.072Z,31.68
2019-03-12T16:14:03.306Z,29.15
2019-03-12T16:16:36.427Z,35.14
2019-03-12T16:19:09.355Z,30.58
2019-03-12T16:21:42.324Z,30.05
2019-03-12T16:24:15.409Z,32.00
2019-03-12T16:26:48.369Z,32.36
2019-03-12T16:29:21.467Z,30.04
2019-03-12T16:31:54.481Z,30.23
2019-03-12T16:34:27.652Z,30.98
2019-03-12T16:37:01.086Z,31.01
2019-03-12T16:39:34.044Z,31.64
2019-03-12T16:42:07.123Z,32.96
2019-03-12T16:44:40.017Z,31.21
2019-03-12T16:47:13.044Z,33.22
2019-03-12T16:49:47.822Z,33.84
2019-03-12T16:52:21.261Z,30.59
2019-03-12T16:54:54.217Z,30.43
2019-03-12T16:57:27.160Z,31.80
2019-03-12T17:00:00.044Z,31.63
2019-03-12T17:02:35.786Z,34.00
2019-03-12T17:05:09.388Z,32.02
2019-03-12T17:07:42.412Z,29.20
2019-03-12T17:10:15.392Z,31.09
2019-03-12T17:12:48.342Z,28.07
2019-03-12T17:15:21.434Z,27.55
2019-03-12T17:17:54.695Z,29.12
2019-03-12T17:20:27.723Z,29.93
2019-03-12T17:23:00.895Z,32.35
2019-03-12T17:25:33.960Z,26.82
2019-03-12T17:28:06.980Z,27.14
2019-03-12T17:30:40.146Z,27.96
2019-03-12T17:33:13.188Z,26.04
2019-03-12T17:35:45.649Z,24.72
2019-03-12T17:38:18.700Z,25.71
2019-03-12T17:40:51.274Z,25.39
2019-03-12T17:43:24.334Z,24.09
2019-03-12T17:45:57.516Z,24.52
2019-03-12T17:48:30.548Z,24.70
2019-03-12T17:51:03.559Z,23.84
2019-03-12T17:53:36.663Z,23.18
2019-03-12T17:56:09.705Z,22.82
2019-03-12T17:58:42.790Z,22.45
2019-03-12T18:01:15.815Z,22.88
2019-03-12T18:03:48.990Z,22.84
2019-03-12T18:06:21.892Z,23.02
2019-03-12T18:08:54.858Z,23.22
2019-03-12T18:11:27.760Z,21.89
2019-03-12T18:14:00.770Z,22.96
2019-03-12T18:16:40.950Z,23.89
2019-03-12T18:19:08.397Z,23.62
2019-03-12T18:21:41.360Z,22.38
2019-03-12T18:24:14.458Z,22.81
2019-03-12T18:26:47.421Z,21.54
2019-03-12T18:29:21.516Z,22.53
2019-03-12T18:31:54.480Z,21.74
2019-03-12T18:34:27.436Z,22.27
2019-03-12T18:37:00.442Z,22.97
2019-03-12T18:39:33.408Z,21.20
2019-03-12T18:42:09.416Z,22.20
2019-03-12T18:44:44.117Z,22.47
2019-03-12T18:47:19.257Z,21.11
2019-03-12T18:49:51.954Z,21.76
2019-03-12T18:52:24.948Z,21.79
2019-03-12T18:54:57.932Z,22.16
2019-03-12T18:57:30.968Z,21.77
2019-03-12T19:00:04.286Z,22.80
2019-03-12T19:02:37.352Z,22.56
2019-03-12T19:05:10.799Z,22.23
2019-03-12T19:07:43.839Z,21.87
2019-03-12T19:10:17.204Z,22.18
2019-03-12T19:12:50.422Z,21.41
2019-03-12T19:15:23.388Z,21.72
2019-03-12T19:17:56.362Z,21.68
2019-03-12T19:20:29.302Z,21.82
2019-03-12T19:23:02.364Z,22.11
2019-03-12T19:25:38.184Z,22.15
2019-03-12T19:28:10.738Z,21.53
2019-03-12T19:30:43.884Z,21.74
2019-03-12T19:33:17.757Z,22.43
2019-03-12T19:35:50.821Z,22.04
2019-03-12T19:38:23.787Z,22.16
2019-03-12T19:40:56.910Z,21.72
2019-03-12T19:43:29.903Z,23.49
2019-03-12T19:46:02.908Z,22.21
2019-03-12T19:48:35.891Z,23.82
2019-03-12T19:51:08.975Z,22.90
2019-03-12T19:53:44.148Z,23.23
2019-03-12T19:56:16.986Z,23.44
2019-03-12T19:58:50.061Z,24.52
2019-03-12T20:01:24.964Z,24.95
2019-03-12T20:03:59.219Z,23.85
2019-03-12T20:06:32.338Z,25.32
2019-03-12T20:09:08.969Z,24.91
2019-03-12T20:12:29.276Z,24.03
2019-03-12T20:16:19.164Z,25.19
2019-03-12T20:19:46.718Z,24.33
2019-03-12T20:23:20.009Z,24.03
2019-03-12T20:26:50.490Z,25.33
2019-03-12T20:30:35.643Z,25.80
2019-03-12T20:34:05.445Z,23.38
2019-03-12T20:37:46.175Z,24.48
2019-03-12T20:41:32.879Z,24.55
2019-03-12T20:45:00.494Z,26.47
2019-03-12T20:48:46.253Z,25.06
2019-03-12T20:52:20.645Z,25.60
2019-03-12T20:56:11.610Z,27.12
2019-03-12T20:59:49.114Z,26.48
2019-03-12T21:03:38.726Z,25.95
2019-03-12T21:07:16.881Z,26.13
2019-03-12T21:10:48.010Z,26.82
2019-03-12T21:14:18.949Z,28.08
2019-03-12T21:17:47.869Z,28.35
2019-03-12T21:21:28.275Z,27.94
2019-03-12T21:24:45.952Z,28.74
2019-03-12T21:28:09.071Z,29.26
2019-03-12T21:30:42.071Z,29.62
2019-03-12T21:33:15.798Z,30.43
2019-03-12T21:35:49.068Z,30.97
2019-03-12T21:38:22.247Z,30.88
2019-03-12T21:40:55.303Z,31.03
2019-03-12T21:43:28.458Z,32.48
2019-03-12T21:46:01.509Z,31.27
2019-03-12T21:48:34.409Z,32.15
2019-03-12T21:51:07.556Z,32.69
2019-03-12T21:53:40.548Z,33.67
2019-03-12T21:56:13.658Z,33.21
2019-03-12T21:58:46.658Z,32.45
2019-03-12T22:01:19.677Z,31.22
2019-03-12T22:03:53.399Z,32.24
2019-03-12T22:06:26.454Z,31.16
2019-03-12T22:08:59.428Z,32.53
2019-03-12T22:11:32.538Z,32.86
2019-03-12T22:14:05.520Z,31.67
2019-03-12T22:16:38.596Z,32.20
2019-03-12T22:19:11.708Z,33.07
2019-03-12T22:22:03.634Z,33.16
2019-03-12T22:24:36.798Z,33.68
2019-03-12T22:27:09.967Z,33.79
2019-03-12T22:29:43.150Z,34.60
2019-03-12T22:32:16.419Z,34.54
2019-03-12T22:34:49.480Z,34.75
2019-03-12T22:37:22.599Z,35.62
2019-03-12T22:39:55.603Z,35.21
2019-03-12T22:42:28.509Z,34.57
2019-03-12T22:45:01.604Z,33.98
2019-03-12T22:47:34.601Z,35.37
2019-03-12T22:50:08.162Z,35.50
2019-03-12T22:52:41.321Z,35.43
2019-03-12T22:55:14.468Z,36.15
2019-03-12T22:57:47.405Z,35.87
2019-03-12T23:00:22.607Z,35.81
2019-03-12T23:02:55.675Z,35.84
2019-03-12T23:05:28.635Z,37.18
2019-03-12T23:08:01.578Z,36.53
2019-03-12T23:10:34.818Z,36.31
2019-03-12T23:13:07.989Z,36.14
2019-03-12T23:15:40.999Z,37.55
2019-03-12T23:18:14.100Z,39.83
2019-03-12T23:20:47.069Z,41.75
2019-03-12T23:23:20.057Z,56.40
2019-03-12T23:25:53.048Z,65.98
2019-03-12T23:28:27.575Z,70.77
2019-03-12T23:31:00.625Z,72.83
2019-03-12T23:33:33.466Z,78.56
2019-03-12T23:36:06.627Z,80.31
2019-03-12T23:38:39.447Z,81.78
2019-03-12T23:41:12.335Z,82.20
2019-03-12T23:43:45.211Z,82.25
2019-03-12T23:46:18.239Z,84.77
2019-03-12T23:48:51.040Z,84.40
2019-03-12T23:51:24.092Z,83.72
2019-03-12T23:53:56.962Z,84.75
2019-03-12T23:56:30.040Z,85.56
2019-03-12T23:59:04.751Z,85.57
